Time;durP1;ratioP1;P1;durP2;ratioP2;P2;SDS_P1;SDS_P2;PMS_P1;PMS_P2;Temp;Humidity;BMP_temperature;BMP_pressure;BME280_temperature;BME280_humidity;BME280_pressure;Samples;Min_cycle;Max_cycle;Signal;HPM_P1;HPM_P2
2024/01/26 00:00:17;;;;;;;;;;;9.90;42.50;;;;;;5034290;28;19905;-75
2024/01/26 00:02:59;;;;;;;;;;;9.80;36.20;;;;;;5034552;28;20337;-76
2024/01/26 00:05:59;;;;;;;;;;;9.90;36.20;;;;;;5034426;28;19952;-75
2024/01/26 00:08:29;;;;;;;;;;;9.80;39.70;;;;;;5034940;28;19971;-78
2024/01/26 00:10:59;;;;;;;;;;;9.80;42.40;;;;;;5051955;28;19916;-78
2024/01/26 00:13:29;;;;;;;;;;;9.70;46.60;;;;;;5048167;28;19911;-78
2024/01/26 00:15:59;;;;;;;;;;;9.70;42.60;;;;;;5035192;28;19909;-78
2024/01/26 00:21:59;;;;;;;;;;;9.80;39.50;;;;;;5043501;28;19920;-78
2024/01/26 00:24:29;;;;;;;;;;;9.80;39.20;;;;;;5043441;28;19917;-75
2024/01/26 00:26:59;;;;;;;;;;;9.70;35.10;;;;;;5036267;28;19944;-75
2024/01/26 00:29:29;;;;;;;;;;;9.70;41.00;;;;;;5045303;28;20348;-75
2024/01/26 00:31:54;;;;;;;;;;;9.60;42.50;;;;;;5048113;28;19909;-76
2024/01/26 00:34:23;;;;;;;;;;;9.70;42.70;;;;;;5034492;28;20350;-76
2024/01/26 00:37:00;;;;;;;;;;;9.60;46.60;;;;;;5033854;28;19905;-75
2024/01/26 00:39:29;;;;;;;;;;;9.60;42.50;;;;;;5041229;28;19908;-78
2024/01/26 00:41:54;;;;;;;;;;;9.70;42.60;;;;;;5033509;28;19963;-78
2024/01/26 00:44:20;;;;;;;;;;;9.70;42.50;;;;;;5034545;28;19910;-78
2024/01/26 00:46:59;;;;;;;;;;;9.80;42.80;;;;;;5046423;28;20341;-78
2024/01/26 00:49:29;;;;;;;;;;;9.60;39.30;;;;;;5041187;28;19956;-78
2024/01/26 00:51:59;;;;;;;;;;;9.70;42.90;;;;;;5050172;28;20328;-78
2024/01/26 00:54:29;;;;;;;;;;;9.70;42.60;;;;;;5040703;28;19905;-76
2024/01/26 00:56:59;;;;;;;;;;;9.60;39.30;;;;;;5043535;28;19911;-75
2024/01/26 00:59:29;;;;;;;;;;;9.60;42.60;;;;;;5047047;28;20029;-75
2024/01/26 01:01:54;;;;;;;;;;;9.60;42.50;;;;;;5037470;28;19915;-75
2024/01/26 01:04:30;;;;;;;;;;;9.50;42.60;;;;;;5037628;28;20342;-76
2024/01/26 01:07:16;;;;;;;;;;;9.50;42.40;;;;;;5037962;28;20004;-75
2024/01/26 01:10:17;;;;;;;;;;;9.40;42.30;;;;;;5046921;28;19916;-75
2024/01/26 01:12:47;;;;;;;;;;;9.30;42.30;;;;;;5051943;28;20338;-75
2024/01/26 01:15:41;;;;;;;;;;;9.30;51.40;;;;;;5042418;28;19916;-75
2024/01/26 01:18:17;;;;;;;;;;;9.30;52.60;;;;;;5037638;28;19999;-75
2024/01/26 01:20:43;;;;;;;;;;;9.30;56.10;;;;;;5044510;28;20003;-75
2024/01/26 01:29:23;;;;;;;;;;;9.50;42.40;;;;;;5036978;28;19916;-78
2024/01/26 01:34:59;;;;;;;;;;;9.50;42.40;;;;;;5040058;28;20020;-78
2024/01/26 01:40:27;;;;;;;;;;;9.60;42.50;;;;;;5047385;28;20415;-78
2024/01/26 01:42:53;;;;;;;;;;;9.50;42.40;;;;;;5048152;28;19913;-78
2024/01/26 01:45:19;;;;;;;;;;;9.50;42.50;;;;;;5037257;28;19959;-78
2024/01/26 01:47:45;;;;;;;;;;;9.40;39.10;;;;;;5038186;28;19916;-78
2024/01/26 01:50:11;;;;;;;;;;;9.40;42.70;;;;;;5045567;28;20334;-78
2024/01/26 01:52:44;;;;;;;;;;;9.50;42.50;;;;;;5054327;28;19909;-78
2024/01/26 01:55:29;;;;;;;;;;;9.50;42.40;;;;;;5057018;28;19905;-75
2024/01/26 01:58:23;;;;;;;;;;;9.50;42.40;;;;;;5042985;28;19905;-76
2024/01/26 02:00:53;;;;;;;;;;;9.40;42.30;;;;;;5039731;28;20001;-75
2024/01/26 02:03:29;;;;;;;;;;;9.50;42.40;;;;;;5041005;28;19917;-75
2024/01/26 02:05:59;;;;;;;;;;;9.50;42.40;;;;;;5049947;28;20415;-75
2024/01/26 02:11:53;;;;;;;;;;;9.60;42.60;;;;;;5047022;28;19915;-78
2024/01/26 02:20:24;;;;;;;;;;;9.60;42.50;;;;;;5039967;28;19911;-78
2024/01/26 02:23:05;;;;;;;;;;;9.60;42.60;;;;;;5036203;28;19909;-78
2024/01/26 02:31:36;;;;;;;;;;;9.70;42.50;;;;;;5039776;28;20283;-78
2024/01/26 02:37:05;;;;;;;;;;;9.50;42.60;;;;;;5046776;28;20284;-78
2024/01/26 02:39:35;;;;;;;;;;;9.50;46.00;;;;;;5038784;28;19909;-75
2024/01/26 02:42:00;;;;;;;;;;;9.50;50.50;;;;;;5044731;28;19967;-75
2024/01/26 02:44:29;;;;;;;;;;;9.70;54.60;;;;;;5055754;28;19913;-75
2024/01/26 02:47:11;;;;;;;;;;;9.60;46.10;;;;;;5041994;28;19909;-75
2024/01/26 02:49:47;;;;;;;;;;;9.60;50.30;;;;;;5038849;28;19909;-75
2024/01/26 02:52:29;;;;;;;;;;;9.60;48.70;;;;;;5046320;28;19912;-75
2024/01/26 02:57:57;;;;;;;;;;;9.60;53.30;;;;;;5055432;28;19920;-78
2024/01/26 03:00:23;;;;;;;;;;;9.70;57.40;;;;;;5048472;28;19909;-78
2024/01/26 03:11:57;;;;;;;;;;;9.70;56.30;;;;;;5041322;28;19935;-78
2024/01/26 03:20:30;;;;;;;;;;;9.80;49.50;;;;;;5051436;28;19919;-78
2024/01/26 03:26:11;;;;;;;;;;;9.80;54.20;;;;;;5044782;28;19915;-75
2024/01/26 03:28:47;;;;;;;;;;;9.80;53.10;;;;;;5042428;28;20320;-75
2024/01/26 03:31:13;;;;;;;;;;;9.80;56.60;;;;;;5048111;28;19909;-75
2024/01/26 03:33:39;;;;;;;;;;;9.70;56.90;;;;;;5039364;28;20256;-75
2024/01/26 03:36:35;;;;;;;;;;;9.70;61.60;;;;;;5040199;28;20483;-75
2024/01/26 03:39:05;;;;;;;;;;;9.80;62.30;;;;;;5041346;28;19924;-76
2024/01/26 03:41:30;;;;;;;;;;;9.80;57.90;;;;;;5050498;28;19912;-75
2024/01/26 03:50:06;;;;;;;;;;;9.70;64.90;;;;;;5043949;28;20402;-76
2024/01/26 03:52:47;;;;;;;;;;;9.80;68.00;;;;;;5038647;28;19916;-75
2024/01/26 03:55:17;;;;;;;;;;;9.70;63.20;;;;;;5041796;28;20467;-75
2024/01/26 03:58:11;;;;;;;;;;;9.80;68.20;;;;;;5041407;28;19915;-76
2024/01/26 04:00:59;;;;;;;;;;;9.90;61.50;;;;;;5046821;28;19905;-75
2024/01/26 04:03:53;;;;;;;;;;;9.90;63.90;;;;;;5048176;28;19912;-75
2024/01/26 04:06:53;;;;;;;;;;;10.00;57.60;;;;;;5054244;28;19911;-75
2024/01/26 04:09:35;;;;;;;;;;;10.00;51.50;;;;;;5039502;28;19905;-76
2024/01/26 04:12:11;;;;;;;;;;;10.00;55.70;;;;;;5036041;28;19936;-75
2024/01/26 04:14:41;;;;;;;;;;;10.00;56.00;;;;;;5041876;28;19913;-74
2024/01/26 04:17:29;;;;;;;;;;;10.00;53.30;;;;;;5034633;28;19909;-74
2024/01/26 04:20:23;;;;;;;;;;;10.00;57.60;;;;;;5040040;28;19912;-75
2024/01/26 04:25:59;;;;;;;;;;;9.80;60.60;;;;;;5034327;28;20442;-75
2024/01/26 04:28:47;;;;;;;;;;;9.70;68.60;;;;;;5033975;28;19912;-75
2024/01/26 04:31:12;;;;;;;;;;;9.70;72.00;;;;;;5041920;28;19913;-75
2024/01/26 04:33:41;;;;;;;;;;;9.80;76.10;;;;;;5051584;28;19911;-75
2024/01/26 04:36:07;;;;;;;;;;;9.70;70.30;;;;;;5038227;28;19909;-75
2024/01/26 04:41:37;;;;;;;;;;;9.80;75.50;;;;;;5033834;28;19920;-78
2024/01/26 04:44:02;;;;;;;;;;;9.90;77.20;;;;;;5041729;28;19924;-78
2024/01/26 04:52:34;;;;;;;;;;;10.00;65.90;;;;;;5037279;28;20008;-78
2024/01/26 04:55:35;;;;;;;;;;;9.90;65.80;;;;;;5037526;28;20377;-75
2024/01/26 04:58:01;;;;;;;;;;;10.00;57.70;;;;;;5034572;28;19924;-76
2024/01/26 05:00:35;;;;;;;;;;;10.00;60.40;;;;;;5046416;28;20348;-75
2024/01/26 05:03:00;;;;;;;;;;;10.00;55.50;;;;;;5050989;28;19913;-76
2024/01/26 05:05:53;;;;;;;;;;;10.00;58.80;;;;;;5049566;28;20023;-75
2024/01/26 05:08:47;;;;;;;;;;;10.00;51.20;;;;;;5034484;28;19994;-75
2024/01/26 05:11:18;;;;;;;;;;;10.00;55.90;;;;;;5044322;28;19936;-75
2024/01/26 05:13:44;;;;;;;;;;;10.00;55.30;;;;;;5034840;28;19909;-75
2024/01/26 05:16:17;;;;;;;;;;;10.00;53.20;;;;;;5045562;28;19912;-75
2024/01/26 05:18:47;;;;;;;;;;;10.00;56.10;;;;;;5047217;28;19916;-75
2024/01/26 05:21:23;;;;;;;;;;;9.90;52.10;;;;;;5033842;28;19909;-75
2024/01/26 05:23:59;;;;;;;;;;;9.90;57.60;;;;;;5037240;28;19919;-75
2024/01/26 05:29:37;;;;;;;;;;;10.00;55.70;;;;;;5047568;28;19951;-78
2024/01/26 05:35:05;;;;;;;;;;;9.90;56.90;;;;;;5046188;28;19932;-80
2024/01/26 05:37:31;;;;;;;;;;;9.80;56.30;;;;;;5036721;28;20364;-80
2024/01/26 05:46:04;;;;;;;;;;;9.90;61.60;;;;;;5041106;28;19967;-79
2024/01/26 05:48:35;;;;;;;;;;;10.00;55.10;;;;;;5038580;28;19908;-79
2024/01/26 05:51:23;;;;;;;;;;;9.90;52.60;;;;;;5046876;28;19908;-85
2024/01/26 05:56:51;;;;;;;;;;;9.90;59.00;;;;;;5044665;28;19916;-80
2024/01/26 05:59:17;;;;;;;;;;;9.90;61.40;;;;;;5041367;28;19909;-80
2024/01/26 06:02:01;;;;;;;;;;;9.80;61.90;;;;;;5035282;28;19917;-80
2024/01/26 06:04:26;;;;;;;;;;;9.90;66.10;;;;;;5047668;28;19909;-80
2024/01/26 06:06:52;;;;;;;;;;;9.80;61.40;;;;;;5035865;28;19913;-81
2024/01/26 06:12:41;;;;;;;;;;;9.90;62.60;;;;;;5050248;28;19915;-80
2024/01/26 06:15:29;;;;;;;;;;;9.90;65.70;;;;;;5043013;28;19909;-80
2024/01/26 06:20:57;;;;;;;;;;;9.80;67.20;;;;;;5047699;28;20002;-81
2024/01/26 06:26:26;;;;;;;;;;;9.80;65.60;;;;;;5052099;28;20015;-83
2024/01/26 06:32:19;;;;;;;;;;;9.90;65.50;;;;;;5036118;28;19932;-78
2024/01/26 06:35:00;;;;;;;;;;;9.90;66.40;;;;;;5049015;28;20534;-77
2024/01/26 06:37:26;;;;;;;;;;;9.90;63.70;;;;;;5045428;28;19995;-78
2024/01/26 06:39:52;;;;;;;;;;;9.90;65.60;;;;;;5041824;28;20560;-75
2024/01/26 06:48:35;;;;;;;;;;;9.90;63.90;;;;;;5035509;28;19936;-81
2024/01/26 06:54:03;;;;;;;;;;;10.00;55.10;;;;;;5054694;28;19965;-80
2024/01/26 06:56:29;;;;;;;;;;;10.40;58.50;;;;;;5054480;28;20427;-80
2024/01/26 07:01:58;;;;;;;;;;;9.90;58.10;;;;;;5036749;28;20311;-80
2024/01/26 07:10:29;;;;;;;;;;;9.90;64.20;;;;;;5053773;28;19923;-80
2024/01/26 07:12:55;;;;;;;;;;;9.90;68.70;;;;;;5051161;28;19905;-76
2024/01/26 07:15:29;;;;;;;;;;;9.90;69.00;;;;;;5053604;28;20287;-76
2024/01/26 07:17:59;;;;;;;;;;;9.90;61.90;;;;;;5050737;28;19952;-76
2024/01/26 07:20:29;;;;;;;;;;;9.90;66.50;;;;;;5048110;28;20368;-75
2024/01/26 07:22:55;;;;;;;;;;;9.90;67.80;;;;;;5035710;28;19917;-75
2024/01/26 07:25:21;;;;;;;;;;;10.00;59.60;;;;;;5065255;28;20275;-76
2024/01/26 07:27:59;;;;;;;;;;;9.90;62.40;;;;;;5041827;28;19935;-79
2024/01/26 07:30:29;;;;;;;;;;;10.00;59.20;;;;;;5052629;28;19915;-79
2024/01/26 07:32:59;;;;;;;;;;;10.10;61.90;;;;;;5037785;28;19986;-80
2024/01/26 07:35:37;;;;;;;;;;;10.10;58.80;;;;;;5034944;28;19940;-80
2024/01/26 07:38:03;;;;;;;;;;;10.10;56.10;;;;;;5045614;28;20284;-80
2024/01/26 07:40:36;;;;;;;;;;;10.10;57.10;;;;;;5037093;28;20416;-79
2024/01/26 07:46:11;;;;;;;;;;;10.20;55.90;;;;;;5045920;28;19920;-79
2024/01/26 07:48:47;;;;;;;;;;;10.20;48.70;;;;;;5054496;28;20379;-80
2024/01/26 07:51:17;;;;;;;;;;;10.20;42.10;;;;;;5050073;28;19912;-81
2024/01/26 07:53:53;;;;;;;;;;;10.10;38.80;;;;;;5038486;28;19913;-80
2024/01/26 07:56:18;;;;;;;;;;;10.20;43.80;;;;;;5033866;28;19909;-74
2024/01/26 07:58:47;;;;;;;;;;;10.10;39.20;;;;;;5042864;28;19915;-75
2024/01/26 08:01:13;;;;;;;;;;;10.10;42.10;;;;;;5039445;28;20284;-75
2024/01/26 08:03:41;;;;;;;;;;;10.20;42.60;;;;;;5046030;28;19909;-75
2024/01/26 08:09:12;;;;;;;;;;;10.10;48.70;;;;;;5040299;28;19967;-75
2024/01/26 08:21:23;;;;;;;;;;;10.30;42.00;;;;;;5047823;28;19955;-80
2024/01/26 08:26:51;;;;;;;;;;;10.30;42.20;;;;;;5049088;28;19915;-74
2024/01/26 08:29:17;;;;;;;;;;;10.30;42.50;;;;;;5043788;28;19908;-74
2024/01/26 08:31:49;;;;;;;;;;;10.30;38.90;;;;;;5042465;28;19912;-74
2024/01/26 08:34:14;;;;;;;;;;;10.40;42.30;;;;;;5051498;28;20340;-74
2024/01/26 08:36:41;;;;;;;;;;;10.40;42.40;;;;;;5049204;28;19991;-74
2024/01/26 08:39:11;;;;;;;;;;;10.50;42.30;;;;;;5047803;28;19913;-73
2024/01/26 08:41:37;;;;;;;;;;;10.40;42.30;;;;;;5050230;28;19917;-74
2024/01/26 08:44:03;;;;;;;;;;;10.40;42.30;;;;;;5049824;28;19917;-73
2024/01/26 08:46:30;;;;;;;;;;;10.40;39.00;;;;;;5044444;28;19916;-73
2024/01/26 08:48:56;;;;;;;;;;;10.40;42.40;;;;;;5051768;28;19908;-74
2024/01/26 08:51:25;;;;;;;;;;;10.40;39.00;;;;;;5037323;28;19913;-74
2024/01/26 08:53:53;;;;;;;;;;;10.40;42.60;;;;;;5047833;28;19944;-74
2024/01/26 08:56:30;;;;;;;;;;;10.50;42.60;;;;;;5044659;28;19912;-75
2024/01/26 09:05:02;;;;;;;;;;;10.40;42.30;;;;;;5053734;28;19931;-82
2024/01/26 09:10:30;;;;;;;;;;;10.30;42.30;;;;;;5046269;28;19932;-81
2024/01/26 09:12:59;;;;;;;;;;;10.50;42.30;;;;;;5048205;28;20364;-74
2024/01/26 09:15:59;;;;;;;;;;;9.70;49.60;;;;;;5055531;28;19915;-74
2024/01/26 09:18:29;;;;;;;;;;;10.40;54.80;;;;;;5053564;28;19916;-74
2024/01/26 09:20:54;;;;;;;;;;;10.30;60.20;;;;;;5056952;28;19958;-74
2024/01/26 09:23:20;;;;;;;;;;;10.20;70.30;;;;;;5048940;28;19917;-74
2024/01/26 09:26:05;;;;;;;;;;;10.30;71.20;;;;;;5048712;28;19940;-75
2024/01/26 09:28:35;;;;;;;;;;;10.20;72.70;;;;;;5049688;28;19922;-75
2024/01/26 09:31:05;;;;;;;;;;;10.20;74.80;;;;;;5053429;28;20303;-74
2024/01/26 09:33:30;;;;;;;;;;;10.20;70.60;;;;;;5045471;28;20353;-74
2024/01/26 09:35:56;;;;;;;;;;;10.20;75.30;;;;;;5049858;28;19930;-74
2024/01/26 09:38:35;;;;;;;;;;;10.30;71.60;;;;;;5054615;28;19916;-74
2024/01/26 09:41:01;;;;;;;;;;;10.30;75.50;;;;;;5055687;28;19909;-74
2024/01/26 09:43:35;;;;;;;;;;;10.30;72.60;;;;;;5055147;28;19916;-75
2024/01/26 09:46:06;;;;;;;;;;;10.30;71.70;;;;;;5054193;28;19909;-74
2024/01/26 09:48:54;;;;;;;;;;;10.20;71.10;;;;;;5046544;28;19912;-75
2024/01/26 09:51:24;;;;;;;;;;;10.10;69.30;;;;;;5054456;28;19909;-75
2024/01/26 09:53:51;;;;;;;;;;;10.10;76.90;;;;;;5050125;28;19904;-74
2024/01/26 09:56:17;;;;;;;;;;;10.10;80.20;;;;;;5054034;28;19995;-74
2024/01/26 09:58:53;;;;;;;;;;;10.10;79.90;;;;;;5056311;28;19962;-74
2024/01/26 10:01:22;;;;;;;;;;;10.10;81.30;;;;;;5053088;28;19966;-74
2024/01/26 10:03:52;;;;;;;;;;;10.20;82.10;;;;;;5054080;28;19913;-74
2024/01/26 10:06:29;;;;;;;;;;;10.20;82.60;;;;;;5043924;28;19916;-74
2024/01/26 10:09:08;;;;;;;;;;;10.40;80.90;;;;;;5050421;28;19923;-74
2024/01/26 10:11:34;;;;;;;;;;;10.30;76.50;;;;;;5053477;28;19915;-75
2024/01/26 10:14:19;;;;;;;;;;;10.30;72.20;;;;;;5041819;28;19908;-74
2024/01/26 10:16:52;;;;;;;;;;;10.30;76.40;;;;;;5056067;28;20265;-75
2024/01/26 10:19:21;;;;;;;;;;;10.40;75.10;;;;;;5055009;28;19904;-75
2024/01/26 10:21:47;;;;;;;;;;;10.40;73.70;;;;;;5055133;28;19970;-74
2024/01/26 10:24:13;;;;;;;;;;;10.30;73.50;;;;;;5055693;28;20340;-75
2024/01/26 10:27:05;;;;;;;;;;;10.30;74.60;;;;;;5051575;28;19940;-74
2024/01/26 10:29:31;;;;;;;;;;;10.20;79.00;;;;;;5039651;28;20387;-79
2024/01/26 10:32:23;;;;;;;;;;;10.20;80.70;;;;;;5053346;28;19932;-79
2024/01/26 10:37:59;;;;;;;;;;;10.10;84.20;;;;;;5045642;28;19958;-79
2024/01/26 10:41:02;;;;;;;;;;;10.10;89.30;;;;;;5051038;28;19909;-79
2024/01/26 10:50:06;;;;;;;;;;;10.30;91.10;;;;;;5051253;28;19912;-78
2024/01/26 10:55:35;;;;;;;;;;;10.50;87.40;;;;;;5035658;28;19911;-80
2024/01/26 10:58:23;;;;;;;;;;;10.60;90.40;;;;;;5035403;28;19927;-79
2024/01/26 11:03:52;;;;;;;;;;;10.90;80.80;;;;;;5035266;28;20018;-79
2024/01/26 11:09:21;;;;;;;;;;;10.90;65.00;;;;;;5035226;28;19916;-79
2024/01/26 11:27:03;;;;;;;;;;;10.90;58.00;;;;;;5038959;28;19942;-79
2024/01/26 11:29:36;;;;;;;;;;;10.90;56.90;;;;;;5044409;28;19909;-76
2024/01/26 11:32:18;;;;;;;;;;;10.90;61.30;;;;;;5034503;28;20369;-75
2024/01/26 11:37:55;;;;;;;;;;;11.00;62.60;;;;;;5023135;28;19916;-76
2024/01/26 11:40:35;;;;;;;;;;;11.00;60.30;;;;;;5043129;28;19924;-76
2024/01/26 11:43:01;;;;;;;;;;;11.00;61.70;;;;;;5051566;28;19913;-76
2024/01/26 11:45:53;;;;;;;;;;;10.90;63.50;;;;;;5051928;28;19919;-77
2024/01/26 11:48:20;;;;;;;;;;;11.10;68.20;;;;;;5040968;28;19913;-76
2024/01/26 11:53:48;;;;;;;;;;;11.10;60.70;;;;;;5049319;28;19915;-76
2024/01/26 11:56:23;;;;;;;;;;;11.10;64.90;;;;;;5048067;28;19946;-76
2024/01/26 11:59:05;;;;;;;;;;;11.10;64.70;;;;;;5051592;28;19908;-77
2024/01/26 12:01:47;;;;;;;;;;;11.00;65.10;;;;;;5045561;28;19909;-76
2024/01/26 12:07:41;;;;;;;;;;;11.30;63.30;;;;;;5042328;28;20398;-76
2024/01/26 12:10:08;;;;;;;;;;;11.40;59.60;;;;;;5037986;28;20031;-76
2024/01/26 12:12:35;;;;;;;;;;;11.50;43.30;;;;;;5050507;28;19909;-76
2024/01/26 12:15:37;;;;;;;;;;;11.50;43.20;;;;;;5045945;28;19909;-77
2024/01/26 12:18:06;;;;;;;;;;;11.50;43.40;;;;;;5043312;28;19995;-77
2024/01/26 12:23:35;;;;;;;;;;;11.70;43.40;;;;;;5039945;28;20333;-77
2024/01/26 12:26:11;;;;;;;;;;;11.70;43.30;;;;;;5035398;28;19940;-77
2024/01/26 12:31:47;;;;;;;;;;;11.90;40.40;;;;;;5052749;28;19911;-78
2024/01/26 12:43:59;;;;;;;;;;;12.10;43.70;;;;;;5046230;28;20349;-79
2024/01/26 12:46:35;;;;;;;;;;;12.00;34.40;;;;;;5057349;28;20391;-76
2024/01/26 12:49:05;;;;;;;;;;;12.00;42.00;;;;;;5055994;28;20372;-76
2024/01/26 12:51:41;;;;;;;;;;;12.00;40.50;;;;;;5046805;28;19916;-76
2024/01/26 12:54:11;;;;;;;;;;;12.10;44.00;;;;;;5046102;28;20319;-76
2024/01/26 12:56:47;;;;;;;;;;;12.40;29.30;;;;;;5049792;28;19909;-76
2024/01/26 12:59:17;;;;;;;;;;;12.50;31.90;;;;;;5046808;28;19913;-76
2024/01/26 13:01:59;;;;;;;;;;;12.60;20.50;;;;;;5041226;28;19912;-77
2024/01/26 13:05:00;;;;;;;;;;;12.70;16.30;;;;;;5053753;28;19905;-77
2024/01/26 13:07:59;;;;;;;;;;;12.60;11.90;;;;;;5039211;28;19909;-77
2024/01/26 13:13:28;;;;;;;;;;;12.50;14.10;;;;;;5056335;28;19954;-79
2024/01/26 13:22:01;;;;;;;;;;;12.20;19.00;;;;;;5038018;28;19915;-78
2024/01/26 13:24:35;;;;;;;;;;;12.10;26.90;;;;;;5058363;28;20291;-77
2024/01/26 13:30:04;;;;;;;;;;;12.20;34.40;;;;;;5037375;28;19932;-77
2024/01/26 13:36:00;;;;;;;;;;;12.10;43.70;;;;;;5036971;28;20025;-76
2024/01/26 13:41:28;;;;;;;;;;;12.10;43.90;;;;;;5052703;28;19966;-75
2024/01/26 13:44:11;;;;;;;;;;;11.80;33.00;;;;;;5052938;28;19920;-74
2024/01/26 13:49:40;;;;;;;;;;;11.80;43.40;;;;;;5041481;28;19912;-77
2024/01/26 13:55:11;;;;;;;;;;;11.40;1.00;;;;;;5035616;28;19911;-77
2024/01/26 14:00:40;;;;;;;;;;;11.20;1.00;;;;;;5051822;28;20378;-73
2024/01/26 14:03:05;;;;;;;;;;;11.10;1.00;;;;;;5038611;28;19917;-73
2024/01/26 14:05:32;;;;;;;;;;;11.00;1.00;;;;;;5036496;28;19944;-74
2024/01/26 14:07:58;;;;;;;;;;;11.00;1.00;;;;;;5045663;28;19909;-75
2024/01/26 14:10:24;;;;;;;;;;;10.80;1.00;;;;;;5044701;28;19916;-73
2024/01/26 14:13:11;;;;;;;;;;;10.80;1.00;;;;;;5051848;28;19970;-74
2024/01/26 14:15:37;;;;;;;;;;;10.90;1.00;;;;;;5037546;28;19909;-73
2024/01/26 14:18:06;;;;;;;;;;;10.90;1.00;;;;;;5051719;28;19919;-74
2024/01/26 14:20:41;;;;;;;;;;;10.90;1.00;;;;;;5039507;28;19905;-75
2024/01/26 14:23:17;;;;;;;;;;;11.00;1.00;;;;;;5051324;28;19962;-74
2024/01/26 14:26:11;;;;;;;;;;;11.00;1.00;;;;;;5037706;28;19915;-75
2024/01/26 14:31:39;;;;;;;;;;;11.30;1.00;;;;;;5049807;28;19958;-76
2024/01/26 14:34:17;;;;;;;;;;;11.50;1.00;;;;;;5050528;28;19999;-75
2024/01/26 14:36:45;;;;;;;;;;;11.40;1.00;;;;;;5053252;28;19916;-76
2024/01/26 14:45:17;;;;;;;;;;;11.20;1.00;;;;;;5036952;28;19936;-76
2024/01/26 14:50:53;;;;;;;;;;;11.20;1.00;;;;;;5035281;28;19905;-75
2024/01/26 14:53:19;;;;;;;;;;;11.20;1.00;;;;;;5036888;28;19909;-75
2024/01/26 14:55:45;;;;;;;;;;;11.20;1.00;;;;;;5051035;28;19932;-75
2024/01/26 14:58:17;;;;;;;;;;;11.10;1.00;;;;;;5038187;28;19927;-75
2024/01/26 15:01:05;;;;;;;;;;;11.20;1.00;;;;;;5044874;28;19919;-74
2024/01/26 15:03:47;;;;;;;;;;;11.10;1.00;;;;;;5043970;28;19908;-75
2024/01/26 15:06:13;;;;;;;;;;;11.00;1.00;;;;;;5048506;28;19961;-75
2024/01/26 15:08:39;;;;;;;;;;;10.90;1.00;;;;;;5047707;28;19917;-74
2024/01/26 15:11:11;;;;;;;;;;;10.90;1.00;;;;;;5038319;28;20352;-73
2024/01/26 15:13:41;;;;;;;;;;;10.90;1.00;;;;;;5035946;28;19948;-75
2024/01/26 15:16:41;;;;;;;;;;;10.70;1.00;;;;;;5035757;28;19909;-75
2024/01/26 15:19:17;;;;;;;;;;;10.70;1.00;;;;;;5035747;28;19905;-75
2024/01/26 15:21:56;;;;;;;;;;;10.60;1.00;;;;;;5045713;28;19913;-74
2024/01/26 15:27:29;;;;;;;;;;;10.40;1.00;;;;;;5035298;28;19915;-74
2024/01/26 15:30:00;;;;;;;;;;;10.20;1.00;;;;;;5034889;28;19905;-75
2024/01/26 15:32:36;;;;;;;;;;;10.10;1.00;;;;;;5046066;28;20327;-76
2024/01/26 15:35:06;;;;;;;;;;;10.10;1.00;;;;;;5047836;28;19904;-75
2024/01/26 15:37:35;;;;;;;;;;;9.90;1.00;;;;;;5038942;28;19951;-76
2024/01/26 15:40:24;;;;;;;;;;;9.90;1.00;;;;;;5050959;28;19909;-74
2024/01/26 15:46:23;;;;;;;;;;;9.90;1.00;;;;;;5035764;28;19921;-78
2024/01/26 15:49:19;;;;;;;;;;;9.80;1.00;;;;;;5035037;28;19912;-76
2024/01/26 15:54:54;;;;;;;;;;;9.70;1.00;;;;;;5034950;28;19958;-74
2024/01/26 15:57:24;;;;;;;;;;;9.60;1.00;;;;;;5042888;28;19909;-75
2024/01/26 15:59:50;;;;;;;;;;;9.50;1.00;;;;;;5054378;28;19904;-75
2024/01/26 16:02:37;;;;;;;;;;;9.40;1.00;;;;;;5041478;28;19913;-76
2024/01/26 16:17:18;;;;;;;;;;;9.00;1.00;;;;;;5035108;28;20034;-77
2024/01/26 16:19:48;;;;;;;;;;;8.90;1.00;;;;;;5034140;28;20387;-76
2024/01/26 16:22:14;;;;;;;;;;;8.90;1.00;;;;;;5039835;28;19970;-79
2024/01/26 16:33:48;;;;;;;;;;;8.70;1.00;;;;;;5034031;28;20465;-81
2024/01/26 16:39:17;;;;;;;;;;;8.60;1.00;;;;;;5033947;28;19927;-82
2024/01/26 16:41:42;;;;;;;;;;;8.60;1.00;;;;;;5043034;28;19908;-82
2024/01/26 16:44:08;;;;;;;;;;;8.60;1.00;;;;;;5053588;28;19962;-80
2024/01/26 16:49:36;;;;;;;;;;;8.40;1.00;;;;;;5033644;28;19955;-77
2024/01/26 16:58:11;;;;;;;;;;;8.20;1.00;;;;;;5033561;28;19916;-74
2024/01/26 17:00:37;;;;;;;;;;;8.20;1.00;;;;;;5045143;28;19908;-75
2024/01/26 17:03:18;;;;;;;;;;;8.10;1.00;;;;;;5051779;28;19940;-76
2024/01/26 17:06:11;;;;;;;;;;;8.00;1.00;;;;;;5050225;28;20356;-84
2024/01/26 17:08:59;;;;;;;;;;;8.10;1.00;;;;;;5048187;28;19913;-75
2024/01/26 17:11:29;;;;;;;;;;;8.10;1.00;;;;;;5037660;28;20011;-80
2024/01/26 17:14:06;;;;;;;;;;;8.10;1.00;;;;;;5047162;28;19905;-74
2024/01/26 17:16:32;;;;;;;;;;;8.20;1.00;;;;;;5048084;28;19915;-72
2024/01/26 17:18:59;;;;;;;;;;;8.20;1.00;;;;;;5039466;28;19958;-73
2024/01/26 17:21:59;;;;;;;;;;;8.30;1.00;;;;;;5043190;28;19959;-83
2024/01/26 17:24:36;;;;;;;;;;;8.30;1.00;;;;;;5038373;28;19913;-84
2024/01/26 17:30:05;;;;;;;;;;;8.30;1.00;;;;;;5035137;28;19928;-75
2024/01/26 17:32:42;;;;;;;;;;;8.30;1.00;;;;;;5043319;28;19912;-81
2024/01/26 17:35:07;;;;;;;;;;;8.40;1.00;;;;;;5039359;28;19908;-86
2024/01/26 17:41:01;;;;;;;;;;;8.30;1.00;;;;;;5045700;28;19931;-79
2024/01/26 17:43:41;;;;;;;;;;;8.20;1.00;;;;;;5053166;28;19924;-76
2024/01/26 17:52:13;;;;;;;;;;;8.10;1.00;;;;;;5045596;28;19924;-75
2024/01/26 17:54:38;;;;;;;;;;;8.00;1.00;;;;;;5036921;28;19905;-75
2024/01/26 18:03:24;;;;;;;;;;;8.10;1.00;;;;;;5040212;28;19966;-76
2024/01/26 18:05:53;;;;;;;;;;;8.10;1.00;;;;;;5037277;28;19916;-75
2024/01/26 18:08:53;;;;;;;;;;;8.10;1.00;;;;;;5036280;28;19905;-76
2024/01/26 18:11:35;;;;;;;;;;;8.20;1.00;;;;;;5049586;28;19905;-76
2024/01/26 18:14:17;;;;;;;;;;;8.30;1.00;;;;;;5046566;28;19909;-76
2024/01/26 18:16:43;;;;;;;;;;;8.30;1.00;;;;;;5047139;28;19916;-77
2024/01/26 18:19:12;;;;;;;;;;;8.20;1.00;;;;;;5038932;28;19905;-75
2024/01/26 18:21:37;;;;;;;;;;;8.20;1.00;;;;;;5044003;28;20288;-78
2024/01/26 18:27:29;;;;;;;;;;;8.30;1.00;;;;;;5037440;28;19963;-75
2024/01/26 18:30:12;;;;;;;;;;;8.30;1.00;;;;;;5044046;28;20311;-75
2024/01/26 18:33:00;;;;;;;;;;;8.40;1.00;;;;;;5044539;28;20330;-76
2024/01/26 18:35:36;;;;;;;;;;;8.40;1.00;;;;;;5053049;28;19909;-73
2024/01/26 18:41:04;;;;;;;;;;;8.40;1.00;;;;;;5044622;28;20272;-76
2024/01/26 18:43:36;;;;;;;;;;;8.40;1.00;;;;;;5055368;28;19916;-76
2024/01/26 18:46:17;;;;;;;;;;;8.30;1.00;;;;;;5056102;28;19909;-75
2024/01/26 18:48:48;;;;;;;;;;;8.30;1.00;;;;;;5049022;28;19905;-75
2024/01/26 18:51:24;;;;;;;;;;;8.40;1.00;;;;;;5050085;28;20008;-75
2024/01/26 18:54:18;;;;;;;;;;;8.30;1.00;;;;;;5049447;28;19905;-75
2024/01/26 18:56:54;;;;;;;;;;;8.30;1.00;;;;;;5038359;28;19913;-74
2024/01/26 18:59:21;;;;;;;;;;;8.30;1.00;;;;;;5045677;28;19958;-75
2024/01/26 19:01:48;;;;;;;;;;;8.30;1.00;;;;;;5048327;28;19912;-75
2024/01/26 19:04:23;;;;;;;;;;;8.20;1.00;;;;;;5035733;28;19996;-75
2024/01/26 19:06:56;;;;;;;;;;;8.30;1.00;;;;;;5043363;28;19905;-77
2024/01/26 19:09:54;;;;;;;;;;;8.30;1.00;;;;;;5041276;28;19991;-76
2024/01/26 19:15:36;;;;;;;;;;;8.20;1.00;;;;;;5053242;28;19932;-76
2024/01/26 19:18:15;;;;;;;;;;;8.10;1.00;;;;;;5038418;28;19908;-75
2024/01/26 19:21:00;;;;;;;;;;;8.10;1.00;;;;;;5042722;28;19905;-76
2024/01/26 19:26:28;;;;;;;;;;;8.00;1.00;;;;;;5043572;28;19923;-76
2024/01/26 19:35:02;;;;;;;;;;;8.00;1.00;;;;;;5036176;28;19912;-74
2024/01/26 19:37:28;;;;;;;;;;;8.10;1.00;;;;;;5038526;28;20443;-75
2024/01/26 19:49:02;;;;;;;;;;;8.00;1.00;;;;;;5045156;28;19954;-74
2024/01/26 19:51:53;;;;;;;;;;;7.90;1.00;;;;;;5054576;28;19909;-75
2024/01/26 20:00:36;;;;;;;;;;;7.80;1.00;;;;;;5044424;28;19912;-76
2024/01/26 20:03:31;;;;;;;;;;;7.80;1.00;;;;;;5040784;28;19955;-75
2024/01/26 20:06:17;;;;;;;;;;;7.70;1.00;;;;;;5048241;28;20336;-76
2024/01/26 20:08:48;;;;;;;;;;;7.70;1.00;;;;;;5034498;28;20325;-75
2024/01/26 20:11:24;;;;;;;;;;;7.70;1.00;;;;;;5043897;28;20010;-75
2024/01/26 20:14:12;;;;;;;;;;;7.70;1.00;;;;;;5041275;28;19906;-75
2024/01/26 20:16:42;;;;;;;;;;;7.80;1.00;;;;;;5043502;28;19905;-75
2024/01/26 20:19:41;;;;;;;;;;;7.80;1.00;;;;;;5038255;28;20002;-75
2024/01/26 20:22:07;;;;;;;;;;;7.80;1.00;;;;;;5049830;28;19936;-75
2024/01/26 20:24:54;;;;;;;;;;;7.90;1.00;;;;;;5034554;28;19952;-75
2024/01/26 20:30:28;;;;;;;;;;;8.00;1.00;;;;;;5042100;28;19963;-74
2024/01/26 20:36:18;;;;;;;;;;;7.90;1.00;;;;;;5054245;28;19905;-75
2024/01/26 20:38:44;;;;;;;;;;;7.80;1.00;;;;;;5040402;28;19916;-75
2024/01/26 20:41:10;;;;;;;;;;;7.80;1.00;;;;;;5045216;28;19916;-75
2024/01/26 20:43:36;;;;;;;;;;;7.70;1.00;;;;;;5035748;28;19913;-75
2024/01/26 20:46:02;;;;;;;;;;;7.70;1.00;;;;;;5045737;28;19911;-75
2024/01/26 20:51:31;;;;;;;;;;;7.60;1.00;;;;;;5037859;28;19912;-75
2024/01/26 20:57:00;;;;;;;;;;;7.50;1.00;;;;;;5053367;28;19912;-75
2024/01/26 21:05:41;;;;;;;;;;;7.50;1.00;;;;;;5040461;28;20459;-75